Time;durP1;ratioP1;P1;durP2;ratioP2;P2;SDS_P1;SDS_P2;PMS_P1;PMS_P2;Temp;Humidity;BMP_temperature;BMP_pressure;BME280_temperature;BME280_humidity;BME280_pressure;Samples;Min_cycle;Max_cycle;Signal;HPM_P1;HPM_P2
2021/12/13 00:01:40;;;;;;;318.02;158.25;;;;;;;10.62;100.00;99154.69;5046348;28;20484;-61
2021/12/13 00:04:34;;;;;;;314.42;158.30;;;;;;;10.54;100.00;99164.31;5045818;28;20060;-62
2021/12/13 00:07:28;;;;;;;307.75;156.70;;;;;;;10.48;100.00;99166.16;5046950;28;20052;-62
2021/12/13 00:10:18;;;;;;;311.42;153.85;;;;;;;10.42;100.00;99172.31;5046927;28;20060;-61
2021/12/13 00:13:15;;;;;;;321.48;156.60;;;;;;;10.49;100.00;99165.28;5046895;28;20045;-61
2021/12/13 00:16:07;;;;;;;305.75;155.77;;;;;;;10.44;100.00;99167.13;5042531;28;20547;-61
2021/12/13 00:19:04;;;;;;;322.75;155.13;;;;;;;10.27;100.00;99168.34;5036531;28;20084;-61
2021/12/13 00:21:56;;;;;;;312.98;151.77;;;;;;;10.39;100.00;99169.78;5044431;28;20107;-62
2021/12/13 00:24:46;;;;;;;315.55;152.30;;;;;;;10.40;100.00;99175.78;5043116;28;20045;-61
2021/12/13 00:27:34;;;;;;;295.63;151.10;;;;;;;10.31;100.00;99171.69;5045260;28;20061;-61
2021/12/13 00:30:31;;;;;;;308.35;151.93;;;;;;;10.33;100.00;99180.22;5043916;28;20198;-62
2021/12/13 00:33:25;;;;;;;289.35;147.48;;;;;;;10.26;100.00;99184.66;5025408;28;20577;-62
2021/12/13 00:36:47;;;;;;;321.17;152.52;;;;;;;10.30;100.00;99188.84;5045577;28;20634;-61
2021/12/13 00:39:57;;;;;;;306.80;149.68;;;;;;;10.52;100.00;99188.44;5045554;28;20079;-62
2021/12/13 00:42:54;;;;;;;299.80;148.55;;;;;;;10.71;100.00;99192.28;5044715;28;20144;-61
2021/12/13 00:45:47;;;;;;;;;;;;;;;10.75;100.00;99193.91;5046827;28;20052;-62
2021/12/13 00:48:33;;;;;;;289.80;142.48;;;;;;;10.59;100.00;99198.56;5036413;28;19924;-62
2021/12/13 00:51:29;;;;;;;303.47;147.00;;;;;;;10.43;100.00;99191.19;5036456;28;20583;-62
2021/12/13 00:54:17;;;;;;;292.58;142.85;;;;;;;10.27;100.00;99193.25;5043121;28;20524;-62
2021/12/13 00:57:07;;;;;;;293.38;145.20;;;;;;;10.20;100.00;99191.69;5046566;28;20135;-61
2021/12/13 01:00:04;;;;;;;296.65;149.95;;;;;;;10.17;100.00;99195.16;5047434;28;20660;-61
2021/12/13 01:03:03;;;;;;;290.85;145.20;;;;;;;10.09;100.00;99191.84;5065723;28;20055;-63
2021/12/13 01:06:12;;;;;;;294.60;150.52;;;;;;;10.08;100.00;99192.72;5048619;28;20118;-62
2021/12/13 01:09:28;;;;;;;288.45;146.52;;;;;;;10.02;100.00;99200.56;5065167;28;20048;-61
2021/12/13 01:12:17;;;;;;;298.98;145.52;;;;;;;10.10;100.00;99197.84;5064987;28;20040;-61
2021/12/13 01:15:28;;;;;;;316.48;150.07;;;;;;;10.09;100.00;99206.44;5064821;28;20043;-61
2021/12/13 01:18:32;;;;;;;303.30;145.35;;;;;;;10.03;100.00;99201.41;5063356;28;20484;-62
2021/12/13 01:21:37;;;;;;;293.05;146.57;;;;;;;9.87;100.00;99209.44;5063778;28;20059;-61
2021/12/13 01:27:46;;;;;;;307.17;144.82;;;;;;;9.75;100.00;99209.66;5060673;28;20015;-62
2021/12/13 01:30:39;;;;;;;298.58;146.82;;;;;;;9.66;100.00;99216.72;5063163;28;20045;-61
2021/12/13 01:33:21;;;;;;;298.85;148.82;;;;;;;9.75;100.00;99211.38;5063473;28;20053;-62
2021/12/13 01:36:26;;;;;;;306.35;147.25;;;;;;;9.74;100.00;99219.97;5062123;28;20090;-61
2021/12/13 01:39:08;;;;;;;299.48;145.25;;;;;;;9.68;100.00;99220.06;5037347;28;20371;-61
2021/12/13 01:42:20;;;;;;;295.83;146.15;;;;;;;9.81;100.00;99214.69;5065985;28;20045;-62
2021/12/13 01:45:00;;;;;;;303.27;149.00;;;;;;;9.84;100.00;99222.34;5065548;28;20044;-61
2021/12/13 01:47:49;;;;;;;307.27;149.40;;;;;;;9.78;100.00;99216.47;5066076;28;20048;-62
2021/12/13 01:51:04;;;;;;;311.55;147.75;;;;;;;9.83;100.00;99225.78;5061446;28;20064;-61
2021/12/13 01:54:06;;;;;;;315.55;153.07;;;;;;;9.83;100.00;99228.38;5065801;28;20052;-61
2021/12/13 02:00:33;;;;;;;311.50;152.77;;;;;;;9.56;100.00;99232.28;5064576;28;20048;-61
2021/12/13 02:03:08;;;;;;;304.73;151.80;;;;;;;9.67;100.00;99231.25;5064126;28;20078;-61
2021/12/13 02:05:55;;;;;;;303.83;152.23;;;;;;;9.67;100.00;99242.38;5065593;28;20789;-62
2021/12/13 02:08:37;;;;;;;305.83;149.63;;;;;;;9.78;100.00;99237.06;5065325;28;20049;-61
2021/12/13 02:11:27;;;;;;;317.48;153.52;;;;;;;9.75;100.00;99237.94;5065387;28;20067;-62
2021/12/13 02:14:16;;;;;;;299.38;153.02;;;;;;;9.73;100.00;99238.88;5067110;28;20067;-62
2021/12/13 02:17:10;;;;;;;309.30;150.98;;;;;;;9.73;100.00;99246.59;5068540;28;20052;-61
2021/12/13 02:20:06;;;;;;;302.60;150.90;;;;;;;9.63;100.00;99250.19;5064173;28;20533;-61
2021/12/13 02:22:56;;;;;;;340.52;151.50;;;;;;;9.81;100.00;99248.16;5061055;28;20064;-62
2021/12/13 02:25:49;;;;;;;323.52;155.60;;;;;;;10.07;100.00;99260.53;5061508;28;20418;-61
2021/12/13 02:28:35;;;;;;;315.27;151.35;;;;;;;10.20;100.00;99262.03;5068566;28;20106;-61
2021/12/13 02:31:30;;;;;;;319.67;156.87;;;;;;;10.26;100.00;99267.06;5065996;28;20048;-62
2021/12/13 02:34:16;;;;;;;316.50;154.80;;;;;;;10.24;100.00;99258.50;5066227;28;20156;-61
2021/12/13 02:37:04;;;;;;;327.27;155.25;;;;;;;10.29;100.00;99259.28;5049084;28;20060;-61
2021/12/13 02:39:56;;;;;;;318.02;158.63;;;;;;;10.43;100.00;99258.16;5067500;28;20044;-61
2021/12/13 02:42:44;;;;;;;321.35;161.90;;;;;;;10.39;100.00;99259.06;5047453;28;20056;-62
2021/12/13 02:45:34;;;;;;;326.92;163.35;;;;;;;10.32;100.00;99266.94;5029906;28;20047;-62
2021/12/13 02:48:42;;;;;;;342.35;163.13;;;;;;;10.84;100.00;99268.44;5062975;28;20059;-61
2021/12/13 02:51:34;;;;;;;333.52;163.77;;;;;;;11.03;100.00;99277.47;5050745;28;20825;-62
2021/12/13 02:54:45;;;;;;;330.50;165.68;;;;;;;11.16;100.00;99277.19;5047353;28;20645;-61
2021/12/13 02:57:40;;;;;;;351.17;168.57;;;;;;;11.13;100.00;99286.69;5067275;28;20044;-62
2021/12/13 03:00:53;;;;;;;358.60;170.32;;;;;;;11.18;100.00;99290.88;5067149;27;20106;-61
2021/12/13 03:03:47;;;;;;;335.42;170.57;;;;;;;11.29;100.00;99299.22;5066332;28;20364;-61
2021/12/13 03:06:35;;;;;;;339.30;172.88;;;;;;;11.24;100.00;99301.94;5049163;28;20063;-61
2021/12/13 03:09:27;;;;;;;343.35;171.57;;;;;;;11.23;100.00;99312.28;5063908;28;20063;-61
2021/12/13 03:12:12;;;;;;;351.13;175.68;;;;;;;11.57;100.00;99313.19;5052846;28;20057;-62
2021/12/13 03:15:07;;;;;;;349.27;175.57;;;;;;;11.98;100.00;99326.81;5065182;28;20560;-62
2021/12/13 03:18:04;;;;;;;342.23;170.68;;;;;;;12.27;100.00;99324.38;5047834;28;20052;-62
2021/12/13 03:21:27;;;;;;;328.23;166.90;;;;;;;12.66;100.00;99332.75;5044367;28;20122;-62
2021/12/13 03:24:36;;;;;;;305.55;159.15;;;;;;;13.31;100.00;99342.97;5046371;28;20102;-62
2021/12/13 03:27:42;;;;;;;308.58;159.07;;;;;;;13.79;100.00;99348.34;5043921;28;20428;-63
2021/12/13 03:30:50;;;;;;;295.98;157.38;;;;;;;13.90;100.00;99355.75;5043869;28;20043;-62
2021/12/13 03:33:42;;;;;;;301.65;156.07;;;;;;;14.46;100.00;99361.63;5041007;28;20144;-61
2021/12/13 03:36:49;;;;;;;289.25;151.55;;;;;;;14.89;100.00;99360.97;5043603;28;20064;-62
2021/12/13 03:39:38;;;;;;;269.08;140.60;;;;;;;15.53;100.00;99364.59;5044441;28;20052;-62
2021/12/13 03:42:37;;;;;;;258.73;141.00;;;;;;;15.94;96.61;99362.09;5041335;28;20091;-62
2021/12/13 03:45:30;;;;;;;258.13;134.70;;;;;;;16.12;94.08;99381.31;5043448;28;20099;-62
2021/12/13 03:48:21;;;;;;;259.77;136.82;;;;;;;16.28;96.17;99377.16;5026596;28;20497;-62
2021/12/13 03:51:14;;;;;;;241.82;128.20;;;;;;;16.48;94.91;99389.31;5041813;28;20049;-60
2021/12/13 03:54:04;;;;;;;240.55;131.30;;;;;;;16.95;94.07;99390.72;5044501;28;20044;-60
2021/12/13 03:56:54;;;;;;;220.65;122.07;;;;;;;17.33;85.49;99395.94;5044837;28;20476;-60
2021/12/13 03:59:38;;;;;;;210.48;120.40;;;;;;;17.37;86.07;99390.53;5065528;27;20045;-61
2021/12/13 04:02:34;;;;;;;228.45;120.15;;;;;;;17.19;85.53;99402.63;5036328;28;20087;-60
2021/12/13 04:05:20;;;;;;;221.48;121.55;;;;;;;17.66;86.80;99399.63;5041570;28;20384;-61
2021/12/13 04:08:11;;;;;;;218.27;120.25;;;;;;;17.47;82.81;99409.19;5042481;28;20113;-62
2021/12/13 04:11:04;;;;;;;220.60;120.93;;;;;;;18.17;80.52;99396.28;5031610;28;20045;-62
2021/12/13 04:14:09;;;;;;;214.00;116.60;;;;;;;18.47;75.81;99400.88;5063612;28;20048;-61
2021/12/13 04:17:33;;;;;;;209.48;117.88;;;;;;;18.58;78.09;99409.03;5060995;28;20052;-62
2021/12/13 04:20:22;;;;;;;199.13;113.03;;;;;;;18.36;75.80;99401.41;5042964;28;20048;-62
2021/12/13 04:23:20;;;;;;;200.75;113.07;;;;;;;18.42;78.10;99408.09;5027583;28;20216;-62
2021/12/13 04:26:06;;;;;;;178.90;103.93;;;;;;;18.21;73.38;99413.44;5045155;28;20508;-62
2021/12/13 04:28:58;;;;;;;204.13;101.47;;;;;;;18.45;73.53;99420.97;5064618;28;20087;-61
2021/12/13 04:31:41;;;;;;;194.75;104.00;;;;;;;18.53;71.79;99413.59;5059196;28;20060;-61
2021/12/13 04:34:36;;;;;;;171.80;103.05;;;;;;;18.88;79.01;99409.22;5043274;28;20044;-61
2021/12/13 04:37:29;;;;;;;178.48;100.68;;;;;;;19.36;66.60;99411.84;5058829;28;20051;-60
2021/12/13 04:40:34;;;;;;;187.00;101.28;;;;;;;19.62;66.78;99422.69;5061328;28;20067;-61
2021/12/13 04:43:18;;;;;;;198.52;103.55;;;;;;;18.91;67.88;99409.06;5058058;28;20040;-60
2021/12/13 04:46:07;;;;;;;180.27;104.43;;;;;;;18.77;69.65;99409.75;5061510;28;20106;-60
2021/12/13 04:48:55;;;;;;;170.55;96.22;;;;;;;18.39;68.82;99403.84;5052076;28;20040;-63
2021/12/13 04:52:03;;;;;;;161.73;92.68;;;;;;;17.89;68.76;99403.72;5025396;28;20094;-61
2021/12/13 04:54:53;;;;;;;160.82;90.47;;;;;;;18.41;72.96;99409.84;5040939;28;20064;-61
2021/12/13 04:57:41;;;;;;;170.25;91.90;;;;;;;18.35;69.02;99411.00;5052634;28;20060;-61
2021/12/13 05:00:26;;;;;;;165.57;93.80;;;;;;;18.22;70.28;99409.06;5041695;28;20103;-61
2021/12/13 05:03:18;;;;;;;171.30;92.13;;;;;;;18.35;71.47;99415.38;5041818;28;20056;-61
2021/12/13 05:06:06;;;;;;;165.88;88.88;;;;;;;18.66;67.98;99412.94;5041820;28;20519;-63
2021/12/13 05:08:58;;;;;;;;;;;;;;;18.79;65.74;99401.84;5040270;28;20063;-63
2021/12/13 05:11:51;;;;;;;176.05;95.72;;;;;;;19.38;64.78;99399.53;5041808;28;20312;-63
2021/12/13 05:14:49;;;;;;;168.25;89.80;;;;;;;18.91;65.23;99393.41;5040082;28;20551;-62
2021/12/13 05:17:44;;;;;;;163.32;86.53;;;;;;;18.53;66.17;99392.72;5037655;28;20154;-62
2021/12/13 05:20:34;;;;;;;;;;;;;;;19.13;63.28;99388.72;5039404;28;20770;-61
2021/12/13 05:23:23;;;;;;;154.43;84.35;;;;;;;18.96;62.56;99389.63;5041718;28;19930;-60
2021/12/13 05:26:11;;;;;;;170.60;90.88;;;;;;;18.99;64.28;99386.00;5037191;28;20045;-61
2021/12/13 05:29:06;;;;;;;166.18;91.30;;;;;;;18.55;65.67;99394.34;5038438;28;20579;-61
2021/12/13 05:31:51;;;;;;;175.90;94.15;;;;;;;18.77;67.98;99385.41;5028148;28;20741;-61
2021/12/13 05:34:48;;;;;;;174.63;94.68;;;;;;;19.13;68.15;99387.88;5041177;28;20106;-65
2021/12/13 05:37:31;;;;;;;162.45;88.55;;;;;;;18.83;65.42;99385.13;5034880;28;20045;-63
2021/12/13 05:40:31;;;;;;;162.60;84.82;;;;;;;19.67;61.26;99399.72;5036446;28;20126;-63
2021/12/13 05:43:52;;;;;;;177.73;90.47;;;;;;;19.65;62.90;99401.56;5036816;28;20353;-63
2021/12/13 05:46:47;;;;;;;177.45;88.25;;;;;;;19.61;61.78;99403.53;5040063;28;20048;-64
2021/12/13 05:49:40;;;;;;;181.88;93.60;;;;;;;19.47;63.93;99398.22;5048822;28;20057;-63
2021/12/13 05:52:32;;;;;;;169.20;94.57;;;;;;;19.50;61.96;99400.66;5044282;28;20106;-62
2021/12/13 05:55:20;;;;;;;163.25;89.82;;;;;;;20.19;61.63;99397.63;5045687;28;20505;-62
2021/12/13 05:58:03;;;;;;;151.65;85.88;;;;;;;20.38;62.44;99392.19;5042349;28;20049;-62
2021/12/13 06:01:03;;;;;;;137.00;73.97;;;;;;;19.72;54.54;99393.31;5062805;28;20102;-61
2021/12/13 06:03:43;;;;;;;141.57;74.47;;;;;;;19.70;55.80;99386.50;5065905;28;20056;-61
2021/12/13 06:06:49;;;;;;;145.68;78.68;;;;;;;19.91;58.05;99382.66;5067520;28;20061;-61
2021/12/13 06:10:04;;;;;;;166.85;86.22;;;;;;;19.70;56.74;99370.81;5064077;28;20538;-62
2021/12/13 06:12:57;;;;;;;142.40;79.75;;;;;;;20.14;54.64;99363.88;5057167;28;20052;-62
2021/12/13 06:15:50;;;;;;;143.05;73.97;;;;;;;20.24;53.35;99372.88;5050363;28;20049;-63
2021/12/13 06:18:40;;;;;;;140.77;77.97;;;;;;;19.85;54.80;99362.09;5050242;28;20048;-63
2021/12/13 06:21:47;;;;;;;155.23;77.55;;;;;;;20.05;54.93;99356.56;5062446;28;20148;-62
2021/12/13 06:24:45;;;;;;;141.85;78.28;;;;;;;20.22;53.19;99355.56;5066744;28;20661;-63
2021/12/13 06:28:00;;;;;;;156.38;80.22;;;;;;;20.20;54.13;99360.88;5061951;28;20041;-62
2021/12/13 06:30:42;;;;;;;144.65;79.85;;;;;;;20.46;62.19;99348.91;5064613;28;20072;-62
2021/12/13 06:33:31;;;;;;;151.32;78.10;;;;;;;20.37;56.41;99346.84;5049249;28;20044;-62
2021/12/13 06:36:15;;;;;;;152.05;80.13;;;;;;;20.55;54.11;99343.13;5049443;28;20059;-63
2021/12/13 06:39:10;;;;;;;158.48;77.53;;;;;;;20.82;58.41;99335.41;5067241;28;20123;-62
2021/12/13 06:42:03;;;;;;;154.77;80.97;;;;;;;20.87;56.84;99330.72;5044943;28;20048;-62
2021/12/13 06:44:50;;;;;;;161.50;84.95;;;;;;;21.03;55.78;99322.75;5065154;28;20056;-62
2021/12/13 06:47:48;;;;;;;161.60;81.30;;;;;;;20.96;50.88;99311.81;5048316;28;20056;-63
2021/12/13 06:50:35;;;;;;;149.35;77.40;;;;;;;20.80;50.26;99305.84;5057550;28;20139;-63
2021/12/13 06:53:23;;;;;;;156.77;78.75;;;;;;;20.97;51.87;99291.69;5034249;28;20141;-64
2021/12/13 06:56:26;;;;;;;144.15;78.50;;;;;;;20.99;49.84;99285.41;5068570;28;20040;-64
2021/12/13 06:59:29;;;;;;;161.43;79.07;;;;;;;20.85;50.60;99277.56;5046210;28;20061;-63
2021/12/13 07:02:26;;;;;;;142.52;76.03;;;;;;;20.99;50.47;99274.09;5065941;28;20064;-62
2021/12/13 07:05:49;;;;;;;149.95;79.78;;;;;;;20.52;50.03;99264.78;5068813;28;20080;-64
2021/12/13 07:08:37;;;;;;;163.35;71.57;;;;;;;20.81;49.55;99260.38;5067254;28;20142;-62
2021/12/13 07:11:26;;;;;;;130.70;67.82;;;;;;;20.89;45.51;99258.13;5063790;28;20141;-63
2021/12/13 07:14:13;;;;;;;127.22;68.03;;;;;;;21.09;49.24;99248.97;5062021;28;20044;-63
2021/12/13 07:17:02;;;;;;;126.80;66.90;;;;;;;21.05;45.29;99244.03;5061184;28;20056;-64
2021/12/13 07:19:48;;;;;;;130.05;66.20;;;;;;;21.23;47.77;99241.09;5067519;28;20048;-64
2021/12/13 07:22:37;;;;;;;133.65;70.03;;;;;;;20.59;45.72;99246.94;5066225;28;20062;-64
2021/12/13 07:25:23;;;;;;;128.32;65.90;;;;;;;20.91;48.12;99240.50;5066614;28;20086;-63
2021/12/13 07:28:13;;;;;;;124.03;63.53;;;;;;;20.99;50.46;99233.00;5065590;28;20090;-63
2021/12/13 07:30:56;;;;;;;113.78;63.40;;;;;;;21.01;48.13;99227.66;5050584;28;20472;-63
2021/12/13 07:33:51;;;;;;;127.25;64.97;;;;;;;21.01;48.06;99219.81;5062987;28;20373;-64
2021/12/13 07:36:33;;;;;;;117.72;60.97;;;;;;;21.20;48.13;99217.72;5064453;28;20469;-62
2021/12/13 07:39:23;;;;;;;124.35;65.45;;;;;;;21.17;48.60;99217.06;5066670;28;20159;-62
2021/12/13 07:42:09;;;;;;;132.80;66.05;;;;;;;20.66;46.59;99211.59;5062731;28;20123;-65
2021/12/13 07:44:58;;;;;;;136.93;65.72;;;;;;;20.89;46.70;99208.34;5065700;28;20110;-64
2021/12/13 07:48:43;;;;;;;130.77;63.33;;;;;;;20.71;47.08;99209.50;5067653;28;20143;-64
2021/12/13 07:51:47;;;;;;;126.20;63.05;;;;;;;20.88;45.69;99208.44;5061366;28;20048;-64
2021/12/13 07:54:25;;;;;;;117.15;61.50;;;;;;;20.95;47.66;99197.47;5065250;28;20472;-62
2021/12/13 07:57:30;;;;;;;112.93;63.65;;;;;;;20.94;47.31;99201.03;5064577;28;20076;-63
2021/12/13 08:00:19;;;;;;;126.43;63.22;;;;;;;20.96;45.04;99191.28;5068733;28;20117;-64
2021/12/13 08:03:21;;;;;;;134.57;67.22;;;;;;;20.96;46.88;99188.69;5065387;28;20052;-65
2021/12/13 08:06:06;;;;;;;125.70;64.28;;;;;;;20.81;47.99;99176.56;5066859;28;20468;-65
2021/12/13 08:08:59;;;;;;;113.60;63.10;;;;;;;20.95;51.65;99173.06;5063587;28;20048;-64
2021/12/13 08:12:34;;;;;;;117.27;64.67;;;;;;;20.88;50.09;99172.63;5063482;28;20102;-67
2021/12/13 08:15:28;;;;;;;123.25;63.72;;;;;;;20.93;49.56;99162.66;5062086;28;20090;-67
2021/12/13 08:18:25;;;;;;;119.05;64.45;;;;;;;20.60;48.61;99156.97;5064186;28;20048;-66
2021/12/13 08:21:28;;;;;;;118.45;66.20;;;;;;;20.79;49.49;99162.72;5064218;28;20052;-66
2021/12/13 08:24:04;;;;;;;114.80;60.53;;;;;;;20.76;49.34;99157.66;5046142;28;20040;-65
2021/12/13 08:26:58;;;;;;;118.63;63.90;;;;;;;20.78;48.98;99153.19;5047043;28;20407;-66
2021/12/13 08:29:47;;;;;;;117.23;62.43;;;;;;;20.67;50.24;99139.09;5063080;28;20041;-65
2021/12/13 08:32:37;;;;;;;115.60;62.13;;;;;;;20.56;48.00;99150.25;5061510;28;20049;-64
2021/12/13 08:35:26;;;;;;;113.53;62.28;;;;;;;20.37;47.28;99150.56;5064380;28;20118;-67
2021/12/13 08:38:39;;;;;;;114.65;59.70;;;;;;;20.48;49.23;99148.13;5063499;28;20812;-63
2021/12/13 08:42:01;;;;;;;108.03;63.87;;;;;;;20.55;48.03;99138.09;5064119;28;20767;-62
2021/12/13 08:44:52;;;;;;;118.38;61.03;;;;;;;20.51;47.86;99128.78;5063878;28;20431;-63
2021/12/13 08:47:55;;;;;;;115.82;59.10;;;;;;;20.50;50.83;99124.47;5064252;28;20056;-63
2021/12/13 08:50:59;;;;;;;126.18;62.50;;;;;;;20.52;49.54;99123.41;5056508;28;20540;-65
2021/12/13 08:53:37;;;;;;;114.32;59.75;;;;;;;20.57;50.22;99117.91;5064145;28;20053;-63
2021/12/13 08:56:27;;;;;;;117.97;58.95;;;;;;;20.57;48.50;99110.06;5064077;28;20124;-64
2021/12/13 08:59:23;;;;;;;111.80;58.90;;;;;;;20.59;48.24;99109.00;5063601;28;20052;-63
2021/12/13 09:02:12;;;;;;;111.18;55.83;;;;;;;20.57;48.23;99107.44;5051901;28;20067;-62
2021/12/13 09:05:15;;;;;;;106.85;54.60;;;;;;;20.50;46.18;99104.38;5059243;28;20049;-60
2021/12/13 09:08:11;;;;;;;121.28;55.60;;;;;;;20.58;47.67;99096.88;5060853;28;20056;-64
2021/12/13 09:11:01;;;;;;;105.80;50.80;;;;;;;20.49;46.59;99100.06;5056156;28;20052;-64
2021/12/13 09:13:57;;;;;;;106.63;51.17;;;;;;;20.40;46.99;99102.41;5058908;28;20060;-62
2021/12/13 09:17:21;;;;;;;100.05;49.72;;;;;;;20.23;46.72;99096.44;5045763;28;20071;-63
2021/12/13 09:20:28;;;;;;;106.97;50.42;;;;;;;20.33;45.40;99094.09;5050436;28;20136;-62
2021/12/13 09:23:32;;;;;;;95.38;50.95;;;;;;;20.23;47.76;99085.13;5062559;28;20040;-62
2021/12/13 09:26:22;;;;;;;96.07;48.92;;;;;;;20.28;49.39;99083.06;5058890;28;20519;-63
2021/12/13 09:29:12;;;;;;;88.05;46.25;;;;;;;20.22;48.92;99079.06;5060324;28;20068;-62
2021/12/13 09:31:54;;;;;;;85.90;46.05;;;;;;;20.11;47.41;99088.53;5061779;28;20149;-63
2021/12/13 09:34:45;;;;;;;88.22;46.08;;;;;;;19.98;47.59;99080.59;5064812;28;20048;-62
2021/12/13 09:37:34;;;;;;;86.47;47.70;;;;;;;20.01;47.74;99075.19;5062223;28;20045;-61
2021/12/13 09:40:31;;;;;;;107.13;47.72;;;;;;;20.06;53.29;99067.03;5063514;28;20545;-61
2021/12/13 09:43:13;;;;;;;88.15;46.95;;;;;;;19.80;49.68;99066.88;5063637;28;20147;-61
2021/12/13 09:46:05;;;;;;;91.07;47.35;;;;;;;19.72;55.44;99056.03;5064910;28;20110;-62
2021/12/13 09:48:51;;;;;;;95.18;48.22;;;;;;;19.69;69.69;99047.56;5062711;28;20064;-61
2021/12/13 09:52:09;;;;;;;95.35;49.22;;;;;;;19.41;71.80;99033.50;5064519;28;20052;-62
2021/12/13 09:54:56;;;;;;;104.82;46.38;;;;;;;19.36;59.74;99039.94;5061782;28;20045;-63
2021/12/13 09:57:56;;;;;;;96.57;49.07;;;;;;;19.46;54.47;99041.09;5064257;28;20414;-63
2021/12/13 10:00:55;;;;;;;101.28;47.00;;;;;;;19.51;55.59;99035.59;5060861;28;20040;-62
2021/12/13 10:03:58;;;;;;;102.38;49.40;;;;;;;19.51;53.32;99033.00;5044638;28;20044;-62
2021/12/13 10:06:51;;;;;;;98.90;46.75;;;;;;;19.48;58.58;99034.84;5064695;28;20048;-63
2021/12/13 10:09:49;;;;;;;89.90;45.38;;;;;;;19.48;53.47;99039.22;5064012;28;20052;-63
2021/12/13 10:12:39;;;;;;;92.68;46.63;;;;;;;19.45;54.64;99039.41;5062411;28;20692;-62
2021/12/13 10:15:45;;;;;;;89.95;45.25;;;;;;;19.43;53.26;99044.72;5062293;28;20090;-62
2021/12/13 10:18:37;;;;;;;76.28;43.72;;;;;;;19.46;56.80;99043.69;5063529;28;20059;-63
2021/12/13 10:21:28;;;;;;;91.18;43.15;;;;;;;19.39;56.68;99039.78;5063660;28;20415;-63
2021/12/13 10:24:17;;;;;;;83.40;43.05;;;;;;;19.39;51.67;99050.22;5060887;28;20052;-62
2021/12/13 10:27:08;;;;;;;90.65;43.83;;;;;;;19.33;53.27;99042.75;5062660;28;20053;-63
2021/12/13 10:29:57;;;;;;;77.57;43.08;;;;;;;19.27;56.81;99036.13;5061309;28;20052;-63
2021/12/13 10:32:48;;;;;;;83.23;43.20;;;;;;;19.18;56.92;99051.50;5059448;28;20137;-62
2021/12/13 10:35:29;;;;;;;79.88;42.38;;;;;;;19.10;63.89;99044.09;5058685;28;20048;-63
2021/12/13 10:38:25;;;;;;;81.00;40.47;;;;;;;18.97;59.22;99037.94;5063918;28;20619;-62
2021/12/13 10:41:41;;;;;;;91.20;43.55;;;;;;;18.86;62.55;99040.31;5066272;28;20738;-63
2021/12/13 10:44:30;;;;;;;82.05;42.75;;;;;;;18.75;66.74;99037.50;5066845;28;20086;-62
2021/12/13 10:47:43;;;;;;;84.80;42.28;;;;;;;18.63;63.15;99039.88;5065579;28;20475;-64
2021/12/13 10:50:42;;;;;;;85.55;41.70;;;;;;;18.48;66.69;99039.88;5059838;28;20055;-61
2021/12/13 10:53:31;;;;;;;84.47;42.20;;;;;;;18.36;70.70;99042.22;5062664;28;20055;-61
2021/12/13 10:56:18;;;;;;;83.00;41.60;;;;;;;18.30;70.95;99036.50;5063061;28;20412;-62
2021/12/13 10:59:16;;;;;;;77.60;41.00;;;;;;;18.18;70.21;99032.00;5055093;28;20080;-63
2021/12/13 11:02:10;;;;;;;88.45;41.28;;;;;;;18.11;73.99;99031.50;5064226;28;20139;-64
2021/12/13 11:05:11;;;;;;;99.80;44.85;;;;;;;17.97;74.96;99027.00;5064787;28;20132;-64
2021/12/13 11:08:01;;;;;;;87.00;44.38;;;;;;;17.84;77.91;99028.63;5067007;28;20125;-64
2021/12/13 11:10:48;;;;;;;91.57;45.70;;;;;;;17.74;76.26;99032.63;5065362;28;20578;-63
2021/12/13 11:13:39;;;;;;;98.75;45.95;;;;;;;17.65;77.85;99024.47;5066604;28;20087;-63
2021/12/13 11:16:26;;;;;;;91.20;45.92;;;;;;;17.57;79.86;99019.63;5068320;28;20143;-64
2021/12/13 11:19:18;;;;;;;107.00;47.42;;;;;;;17.49;82.32;99022.63;5068038;28;20099;-63
2021/12/13 11:22:13;;;;;;;100.93;48.28;;;;;;;17.39;83.47;99021.47;5065943;28;20415;-63
2021/12/13 11:25:11;;;;;;;101.50;51.55;;;;;;;17.28;84.70;99028.97;5064699;28;20059;-64
2021/12/13 11:28:01;;;;;;;103.18;53.05;;;;;;;17.25;86.85;99023.06;5061729;28;20048;-64
2021/12/13 11:30:53;;;;;;;;;;;;;;;17.13;88.94;99020.19;5064388;28;20465;-64
2021/12/13 11:33:44;;;;;;;110.82;52.75;;;;;;;17.03;91.10;99018.13;5054473;28;19993;-63
2021/12/13 11:36:51;;;;;;;106.00;54.28;;;;;;;16.87;91.45;99017.22;5056688;28;20110;-62
2021/12/13 11:39:58;;;;;;;116.38;57.88;;;;;;;16.78;92.86;99013.31;5067897;28;20082;-61
2021/12/13 11:43:16;;;;;;;111.10;56.78;;;;;;;16.63;94.13;99009.72;5067130;28;20052;-64
2021/12/13 11:46:29;;;;;;;124.75;57.13;;;;;;;16.50;95.12;99005.16;5065703;28;20054;-63
2021/12/13 11:49:34;;;;;;;115.68;60.83;;;;;;;16.40;94.87;98996.97;5065595;28;20040;-64
2021/12/13 11:52:55;;;;;;;109.78;58.83;;;;;;;16.33;95.05;99005.97;5062476;28;20058;-63
2021/12/13 11:55:49;;;;;;;119.55;59.30;;;;;;;16.29;96.79;98992.25;5045764;28;20113;-62
2021/12/13 11:59:05;;;;;;;115.70;62.53;;;;;;;16.14;98.09;99008.59;5048058;28;20094;-63
2021/12/13 12:02:44;;;;;;;127.35;63.45;;;;;;;16.09;100.00;99007.97;5064501;28;20040;-61
2021/12/13 12:06:01;;;;;;;121.18;63.30;;;;;;;15.92;100.00;99013.13;5063270;28;20053;-62
2021/12/13 12:09:08;;;;;;;135.40;64.90;;;;;;;15.71;100.00;99011.53;5065065;28;20496;-62
2021/12/13 12:12:27;;;;;;;126.75;65.22;;;;;;;15.70;100.00;99010.66;5067147;28;20098;-63
2021/12/13 12:15:16;;;;;;;134.93;64.15;;;;;;;15.66;100.00;99017.75;5063646;28;20140;-61
2021/12/13 12:18:08;;;;;;;117.38;62.05;;;;;;;15.58;100.00;99016.41;5049692;28;20037;-62
2021/12/13 12:21:19;;;;;;;142.68;66.85;;;;;;;15.54;100.00;99020.91;5063520;28;20605;-61
2021/12/13 12:24:09;;;;;;;146.90;63.80;;;;;;;15.38;100.00;99014.69;5060483;28;20048;-62
2021/12/13 12:27:05;;;;;;;141.63;65.82;;;;;;;15.30;100.00;99011.56;5059141;28;20052;-63
2021/12/13 12:29:54;;;;;;;147.48;63.15;;;;;;;15.20;100.00;99005.09;5048234;28;20064;-63
2021/12/13 12:32:46;;;;;;;146.63;65.47;;;;;;;15.09;100.00;98997.75;5030430;28;20127;-63
2021/12/13 12:35:33;;;;;;;146.65;68.53;;;;;;;15.06;100.00;98999.66;5047519;28;20488;-63
2021/12/13 12:38:29;;;;;;;145.30;65.57;;;;;;;15.19;100.00;98998.22;5063085;28;20041;-64
2021/12/13 12:41:14;;;;;;;139.27;63.63;;;;;;;15.16;100.00;98998.38;5030929;28;20049;-66
2021/12/13 12:44:02;;;;;;;154.75;68.10;;;;;;;15.06;100.00;99012.63;5044884;28;20739;-65
2021/12/13 12:46:51;;;;;;;148.43;67.75;;;;;;;15.12;100.00;99007.19;5063392;28;20052;-65
2021/12/13 12:49:33;;;;;;;135.77;68.55;;;;;;;14.89;100.00;99008.16;5062453;28;20064;-64
2021/12/13 12:52:22;;;;;;;130.10;68.63;;;;;;;14.82;100.00;99014.53;5065600;28;20361;-63
2021/12/13 12:55:04;;;;;;;136.85;68.80;;;;;;;14.92;100.00;99015.81;5062793;28;20055;-64
2021/12/13 12:57:53;;;;;;;150.55;71.63;;;;;;;14.88;100.00;99017.69;5047484;28;20102;-65
2021/12/13 13:00:36;;;;;;;131.07;70.38;;;;;;;14.67;100.00;99021.19;5061954;28;20072;-64
2021/12/13 13:03:42;;;;;;;136.05;68.88;;;;;;;14.67;100.00;99020.34;5060254;28;20147;-63
2021/12/13 13:06:24;;;;;;;144.70;69.65;;;;;;;14.66;100.00;99024.69;5060460;28;20059;-64
2021/12/13 13:09:15;;;;;;;144.05;70.50;;;;;;;14.70;100.00;99025.38;5045441;28;20045;-64
2021/12/13 13:12:03;;;;;;;156.85;70.18;;;;;;;14.59;100.00;99018.06;5049630;28;20049;-63
2021/12/13 13:14:59;;;;;;;146.25;71.15;;;;;;;14.61;100.00;99016.22;5063585;28;20045;-64
2021/12/13 13:17:53;;;;;;;140.10;69.50;;;;;;;14.64;100.00;99023.91;5060995;28;20048;-63
2021/12/13 13:20:43;;;;;;;150.63;70.20;;;;;;;14.57;100.00;99024.22;5059805;28;20535;-62